Terminal Aerodrome Forecast
Issued by NWS

Home | Current Version | Previous Version | Text Only | Print | Product List | Glossary On
Versions: 1 2 3 4 5 6 7 8 9 10 11 12 13 14 15 16
000
FTUS41 KRNK 251144 AAA
TAFLWB
TAF AMD
KLWB 251144Z 2512/2612 00000KT P6SM BKN250
      TEMPO 2512/2513 4SM BR SCT001
     FM251400 27003KT P6SM SCT045
     FM251900 27006KT P6SM VCTS BKN050CB
     FM260000 00000KT P6SM SCT045 BKN080
     FM260800 00000KT 2SM BR SCT001 BKN015=

USA.gov is the U.S. government's official web portal to all federal, state and local government web resources and services.